sensor_id;sensor_type;location;lat;lon;timestamp;P1;durP1;ratioP1;P2;durP2;ratioP2
48002;SDS011;33768;48.578;11.574;2023-09-30T00:00:47;16.43;;;6.83;;
48002;SDS011;33768;48.578;11.574;2023-09-30T00:03:51;13.97;;;6.40;;
48002;SDS011;33768;48.578;11.574;2023-09-30T00:06:55;18.40;;;7.23;;
48002;SDS011;33768;48.578;11.574;2023-09-30T00:09:59;14.60;;;6.13;;
48002;SDS011;33768;48.578;11.574;2023-09-30T00:13:04;16.13;;;7.20;;
48002;SDS011;33768;48.578;11.574;2023-09-30T00:16:10;14.03;;;7.00;;
48002;SDS011;33768;48.578;11.574;2023-09-30T00:19:14;15.20;;;6.77;;
48002;SDS011;33768;48.578;11.574;2023-09-30T00:22:18;18.07;;;6.87;;
48002;SDS011;33768;48.578;11.574;2023-09-30T00:25:23;15.83;;;6.60;;
48002;SDS011;33768;48.578;11.574;2023-09-30T00:28:27;14.77;;;6.23;;
48002;SDS011;33768;48.578;11.574;2023-09-30T00:31:32;15.97;;;5.67;;
48002;SDS011;33768;48.578;11.574;2023-09-30T00:34:36;17.00;;;6.30;;
48002;SDS011;33768;48.578;11.574;2023-09-30T00:37:41;17.27;;;7.17;;
48002;SDS011;33768;48.578;11.574;2023-09-30T00:40:48;17.30;;;6.90;;
48002;SDS011;33768;48.578;11.574;2023-09-30T00:43:53;16.57;;;6.40;;
48002;SDS011;33768;48.578;11.574;2023-09-30T00:46:57;17.17;;;7.27;;
48002;SDS011;33768;48.578;11.574;2023-09-30T00:50:03;17.17;;;6.73;;
48002;SDS011;33768;48.578;11.574;2023-09-30T00:53:11;18.03;;;7.50;;
48002;SDS011;33768;48.578;11.574;2023-09-30T00:56:16;15.73;;;6.63;;
48002;SDS011;33768;48.578;11.574;2023-09-30T00:59:22;18.00;;;7.37;;
48002;SDS011;33768;48.578;11.574;2023-09-30T01:02:29;19.80;;;8.13;;
48002;SDS011;33768;48.578;11.574;2023-09-30T01:05:33;21.63;;;8.03;;
48002;SDS011;33768;48.578;11.574;2023-09-30T01:08:37;20.60;;;7.87;;
48002;SDS011;33768;48.578;11.574;2023-09-30T01:11:42;13.27;;;6.33;;
48002;SDS011;33768;48.578;11.574;2023-09-30T01:14:46;15.87;;;7.17;;
48002;SDS011;33768;48.578;11.574;2023-09-30T01:17:51;16.47;;;6.93;;
48002;SDS011;33768;48.578;11.574;2023-09-30T01:20:55;16.50;;;6.87;;
48002;SDS011;33768;48.578;11.574;2023-09-30T01:24:00;19.07;;;7.47;;
48002;SDS011;33768;48.578;11.574;2023-09-30T01:27:04;14.70;;;6.97;;
48002;SDS011;33768;48.578;11.574;2023-09-30T01:30:08;17.70;;;7.00;;
48002;SDS011;33768;48.578;11.574;2023-09-30T01:33:14;18.00;;;7.20;;
48002;SDS011;33768;48.578;11.574;2023-09-30T01:36:22;18.97;;;7.67;;
48002;SDS011;33768;48.578;11.574;2023-09-30T01:39:27;17.83;;;6.57;;
48002;SDS011;33768;48.578;11.574;2023-09-30T01:42:31;15.40;;;6.67;;
48002;SDS011;33768;48.578;11.574;2023-09-30T01:45:35;16.17;;;7.10;;
48002;SDS011;33768;48.578;11.574;2023-09-30T01:48:39;18.13;;;7.13;;
48002;SDS011;33768;48.578;11.574;2023-09-30T01:51:43;16.43;;;7.20;;
48002;SDS011;33768;48.578;11.574;2023-09-30T01:54:48;15.20;;;7.00;;
48002;SDS011;33768;48.578;11.574;2023-09-30T01:57:52;14.43;;;6.77;;
48002;SDS011;33768;48.578;11.574;2023-09-30T02:01:01;20.13;;;7.37;;
48002;SDS011;33768;48.578;11.574;2023-09-30T02:04:06;16.30;;;6.50;;
48002;SDS011;33768;48.578;11.574;2023-09-30T02:07:11;17.87;;;6.87;;
48002;SDS011;33768;48.578;11.574;2023-09-30T02:10:15;18.33;;;6.90;;
48002;SDS011;33768;48.578;11.574;2023-09-30T02:13:21;14.60;;;6.47;;
48002;SDS011;33768;48.578;11.574;2023-09-30T02:16:25;15.77;;;6.60;;
48002;SDS011;33768;48.578;11.574;2023-09-30T02:19:29;18.30;;;6.17;;
48002;SDS011;33768;48.578;11.574;2023-09-30T02:22:35;15.50;;;6.97;;
48002;SDS011;33768;48.578;11.574;2023-09-30T02:25:40;14.93;;;6.87;;
48002;SDS011;33768;48.578;11.574;2023-09-30T02:28:44;17.23;;;6.97;;
48002;SDS011;33768;48.578;11.574;2023-09-30T02:31:50;17.97;;;7.03;;
48002;SDS011;33768;48.578;11.574;2023-09-30T02:34:55;16.53;;;6.77;;
48002;SDS011;33768;48.578;11.574;2023-09-30T02:37:59;14.97;;;6.43;;
48002;SDS011;33768;48.578;11.574;2023-09-30T02:41:05;15.80;;;6.37;;
48002;SDS011;33768;48.578;11.574;2023-09-30T02:44:09;16.00;;;7.27;;
48002;SDS011;33768;48.578;11.574;2023-09-30T02:47:13;20.30;;;6.87;;
48002;SDS011;33768;48.578;11.574;2023-09-30T02:50:18;15.03;;;6.60;;
48002;SDS011;33768;48.578;11.574;2023-09-30T02:53:22;18.90;;;7.07;;
48002;SDS011;33768;48.578;11.574;2023-09-30T02:56:26;17.90;;;6.40;;
48002;SDS011;33768;48.578;11.574;2023-09-30T02:59:33;16.57;;;6.43;;
48002;SDS011;33768;48.578;11.574;2023-09-30T03:02:38;16.93;;;6.63;;
48002;SDS011;33768;48.578;11.574;2023-09-30T03:05:42;14.17;;;6.37;;
48002;SDS011;33768;48.578;11.574;2023-09-30T03:08:49;15.27;;;6.20;;
48002;SDS011;33768;48.578;11.574;2023-09-30T03:11:53;16.23;;;6.57;;
48002;SDS011;33768;48.578;11.574;2023-09-30T03:15:00;14.63;;;6.73;;
48002;SDS011;33768;48.578;11.574;2023-09-30T03:18:08;15.90;;;6.73;;
48002;SDS011;33768;48.578;11.574;2023-09-30T03:21:13;13.23;;;6.30;;
48002;SDS011;33768;48.578;11.574;2023-09-30T03:24:18;12.00;;;6.23;;
48002;SDS011;33768;48.578;11.574;2023-09-30T03:27:22;16.40;;;5.93;;
48002;SDS011;33768;48.578;11.574;2023-09-30T03:30:26;14.97;;;6.47;;
48002;SDS011;33768;48.578;11.574;2023-09-30T03:33:34;13.50;;;5.83;;
48002;SDS011;33768;48.578;11.574;2023-09-30T03:36:38;12.03;;;6.00;;
48002;SDS011;33768;48.578;11.574;2023-09-30T03:39:45;12.43;;;6.03;;
48002;SDS011;33768;48.578;11.574;2023-09-30T03:42:52;11.80;;;5.90;;
48002;SDS011;33768;48.578;11.574;2023-09-30T03:45:57;13.27;;;5.83;;
48002;SDS011;33768;48.578;11.574;2023-09-30T03:49:01;13.43;;;6.20;;
48002;SDS011;33768;48.578;11.574;2023-09-30T03:52:06;13.00;;;5.67;;
48002;SDS011;33768;48.578;11.574;2023-09-30T03:55:12;13.00;;;6.07;;
48002;SDS011;33768;48.578;11.574;2023-09-30T03:58:16;14.63;;;5.60;;
48002;SDS011;33768;48.578;11.574;2023-09-30T04:01:22;12.93;;;6.17;;
48002;SDS011;33768;48.578;11.574;2023-09-30T04:04:27;12.03;;;5.93;;
48002;SDS011;33768;48.578;11.574;2023-09-30T04:07:31;13.43;;;5.60;;
48002;SDS011;33768;48.578;11.574;2023-09-30T04:10:36;14.63;;;5.80;;
48002;SDS011;33768;48.578;11.574;2023-09-30T04:13:40;13.67;;;5.93;;
48002;SDS011;33768;48.578;11.574;2023-09-30T04:16:45;15.57;;;6.47;;
48002;SDS011;33768;48.578;11.574;2023-09-30T04:19:49;15.43;;;6.47;;
48002;SDS011;33768;48.578;11.574;2023-09-30T04:22:55;17.70;;;6.43;;
48002;SDS011;33768;48.578;11.574;2023-09-30T04:26:00;12.87;;;6.00;;
48002;SDS011;33768;48.578;11.574;2023-09-30T04:29:05;15.97;;;6.03;;
48002;SDS011;33768;48.578;11.574;2023-09-30T04:32:09;13.37;;;6.03;;
48002;SDS011;33768;48.578;11.574;2023-09-30T04:35:14;13.50;;;6.53;;
48002;SDS011;33768;48.578;11.574;2023-09-30T04:38:19;17.17;;;6.67;;
48002;SDS011;33768;48.578;11.574;2023-09-30T04:41:23;15.10;;;6.50;;
48002;SDS011;33768;48.578;11.574;2023-09-30T04:44:29;15.13;;;6.67;;
48002;SDS011;33768;48.578;11.574;2023-09-30T04:47:34;18.07;;;6.77;;
48002;SDS011;33768;48.578;11.574;2023-09-30T04:50:39;15.57;;;6.37;;
48002;SDS011;33768;48.578;11.574;2023-09-30T04:53:44;14.33;;;5.93;;
48002;SDS011;33768;48.578;11.574;2023-09-30T04:56:49;13.30;;;6.57;;
48002;SDS011;33768;48.578;11.574;2023-09-30T04:59:54;12.23;;;5.73;;
48002;SDS011;33768;48.578;11.574;2023-09-30T05:02:58;17.43;;;5.90;;
48002;SDS011;33768;48.578;11.574;2023-09-30T05:06:03;13.50;;;6.20;;
48002;SDS011;33768;48.578;11.574;2023-09-30T05:09:07;16.70;;;6.30;;
48002;SDS011;33768;48.578;11.574;2023-09-30T05:12:11;12.10;;;6.00;;
48002;SDS011;33768;48.578;11.574;2023-09-30T05:15:16;12.57;;;6.07;;
48002;SDS011;33768;48.578;11.574;2023-09-30T05:18:20;11.50;;;5.50;;
48002;SDS011;33768;48.578;11.574;2023-09-30T05:21:24;14.90;;;5.87;;
48002;SDS011;33768;48.578;11.574;2023-09-30T05:24:29;18.77;;;5.47;;
48002;SDS011;33768;48.578;11.574;2023-09-30T05:27:32;15.97;;;6.33;;
48002;SDS011;33768;48.578;11.574;2023-09-30T05:30:37;11.50;;;5.53;;
48002;SDS011;33768;48.578;11.574;2023-09-30T05:33:41;14.53;;;6.03;;
48002;SDS011;33768;48.578;11.574;2023-09-30T05:36:45;15.87;;;6.17;;
48002;SDS011;33768;48.578;11.574;2023-09-30T05:39:49;13.80;;;5.30;;
48002;SDS011;33768;48.578;11.574;2023-09-30T05:42:55;13.83;;;5.57;;
48002;SDS011;33768;48.578;11.574;2023-09-30T05:46:02;13.00;;;5.90;;
48002;SDS011;33768;48.578;11.574;2023-09-30T05:49:06;15.63;;;5.57;;
48002;SDS011;33768;48.578;11.574;2023-09-30T05:52:15;50.73;;;27.70;;
48002;SDS011;33768;48.578;11.574;2023-09-30T05:55:19;15.83;;;8.30;;
48002;SDS011;33768;48.578;11.574;2023-09-30T05:58:24;12.43;;;5.43;;
48002;SDS011;33768;48.578;11.574;2023-09-30T06:01:28;11.37;;;5.10;;
48002;SDS011;33768;48.578;11.574;2023-09-30T06:04:32;10.07;;;4.67;;
48002;SDS011;33768;48.578;11.574;2023-09-30T06:07:37;9.43;;;4.80;;
48002;SDS011;33768;48.578;11.574;2023-09-30T06:10:41;10.93;;;4.27;;
48002;SDS011;33768;48.578;11.574;2023-09-30T06:13:52;10.70;;;5.57;;
48002;SDS011;33768;48.578;11.574;2023-09-30T06:16:56;10.77;;;5.10;;
48002;SDS011;33768;48.578;11.574;2023-09-30T06:20:03;10.17;;;4.87;;
48002;SDS011;33768;48.578;11.574;2023-09-30T06:23:13;7.87;;;4.70;;
48002;SDS011;33768;48.578;11.574;2023-09-30T06:26:17;9.50;;;4.30;;
48002;SDS011;33768;48.578;11.574;2023-09-30T06:29:22;10.37;;;4.40;;
48002;SDS011;33768;48.578;11.574;2023-09-30T06:32:26;7.30;;;4.00;;
48002;SDS011;33768;48.578;11.574;2023-09-30T06:35:31;7.67;;;4.13;;
48002;SDS011;33768;48.578;11.574;2023-09-30T06:38:40;10.53;;;4.73;;
48002;SDS011;33768;48.578;11.574;2023-09-30T06:41:48;10.87;;;4.63;;
48002;SDS011;33768;48.578;11.574;2023-09-30T06:44:52;11.97;;;5.47;;
48002;SDS011;33768;48.578;11.574;2023-09-30T06:47:57;11.23;;;4.70;;
48002;SDS011;33768;48.578;11.574;2023-09-30T06:51:01;9.73;;;4.87;;
48002;SDS011;33768;48.578;11.574;2023-09-30T06:54:06;9.17;;;4.67;;
48002;SDS011;33768;48.578;11.574;2023-09-30T06:57:11;8.93;;;4.30;;
48002;SDS011;33768;48.578;11.574;2023-09-30T07:00:15;10.40;;;4.13;;
48002;SDS011;33768;48.578;11.574;2023-09-30T07:03:20;8.00;;;4.00;;
48002;SDS011;33768;48.578;11.574;2023-09-30T07:06:24;7.93;;;3.63;;
48002;SDS011;33768;48.578;11.574;2023-09-30T07:09:28;7.30;;;3.70;;
48002;SDS011;33768;48.578;11.574;2023-09-30T07:12:32;7.30;;;3.67;;
48002;SDS011;33768;48.578;11.574;2023-09-30T07:15:39;10.30;;;4.70;;
48002;SDS011;33768;48.578;11.574;2023-09-30T07:18:43;7.87;;;4.37;;
48002;SDS011;33768;48.578;11.574;2023-09-30T07:25:16;6.17;;;3.23;;
48002;SDS011;33768;48.578;11.574;2023-09-30T07:28:20;5.93;;;2.80;;
48002;SDS011;33768;48.578;11.574;2023-09-30T07:31:24;7.87;;;3.37;;
48002;SDS011;33768;48.578;11.574;2023-09-30T07:34:29;6.63;;;3.30;;
48002;SDS011;33768;48.578;11.574;2023-09-30T07:37:33;6.20;;;3.07;;
48002;SDS011;33768;48.578;11.574;2023-09-30T07:40:37;5.67;;;2.93;;
48002;SDS011;33768;48.578;11.574;2023-09-30T07:43:41;4.53;;;2.17;;
48002;SDS011;33768;48.578;11.574;2023-09-30T07:46:45;4.10;;;1.90;;
48002;SDS011;33768;48.578;11.574;2023-09-30T07:49:50;6.20;;;2.20;;
48002;SDS011;33768;48.578;11.574;2023-09-30T07:52:54;4.87;;;2.43;;
48002;SDS011;33768;48.578;11.574;2023-09-30T07:56:00;3.70;;;1.90;;
48002;SDS011;33768;48.578;11.574;2023-09-30T07:59:04;5.10;;;1.63;;
48002;SDS011;33768;48.578;11.574;2023-09-30T08:02:09;3.33;;;1.63;;
48002;SDS011;33768;48.578;11.574;2023-09-30T08:05:13;3.07;;;1.60;;
48002;SDS011;33768;48.578;11.574;2023-09-30T08:08:17;3.27;;;1.63;;
48002;SDS011;33768;48.578;11.574;2023-09-30T08:11:21;1.90;;;1.13;;
48002;SDS011;33768;48.578;11.574;2023-09-30T08:14:25;3.70;;;1.30;;
48002;SDS011;33768;48.578;11.574;2023-09-30T08:17:29;5.20;;;1.30;;
48002;SDS011;33768;48.578;11.574;2023-09-30T08:20:34;3.67;;;1.50;;
48002;SDS011;33768;48.578;11.574;2023-09-30T08:23:38;3.33;;;1.50;;
48002;SDS011;33768;48.578;11.574;2023-09-30T08:26:45;2.77;;;1.47;;
48002;SDS011;33768;48.578;11.574;2023-09-30T08:29:49;5.50;;;2.03;;
48002;SDS011;33768;48.578;11.574;2023-09-30T08:32:53;2.47;;;1.67;;
48002;SDS011;33768;48.578;11.574;2023-09-30T08:36:04;2.73;;;1.73;;
48002;SDS011;33768;48.578;11.574;2023-09-30T08:39:11;4.40;;;2.20;;
48002;SDS011;33768;48.578;11.574;2023-09-30T08:42:16;3.30;;;2.10;;
48002;SDS011;33768;48.578;11.574;2023-09-30T08:45:23;3.23;;;2.10;;
48002;SDS011;33768;48.578;11.574;2023-09-30T08:48:28;5.03;;;2.23;;
48002;SDS011;33768;48.578;11.574;2023-09-30T08:51:34;2.90;;;1.80;;
48002;SDS011;33768;48.578;11.574;2023-09-30T08:54:39;6.83;;;2.10;;
48002;SDS011;33768;48.578;11.574;2023-09-30T08:57:45;4.07;;;1.20;;
48002;SDS011;33768;48.578;11.574;2023-09-30T09:00:50;3.10;;;1.30;;
48002;SDS011;33768;48.578;11.574;2023-09-30T09:03:55;2.70;;;1.20;;
48002;SDS011;33768;48.578;11.574;2023-09-30T09:07:00;1.80;;;1.03;;
48002;SDS011;33768;48.578;11.574;2023-09-30T09:10:10;3.27;;;1.23;;
48002;SDS011;33768;48.578;11.574;2023-09-30T09:13:17;3.40;;;1.30;;
48002;SDS011;33768;48.578;11.574;2023-09-30T09:16:21;37.43;;;26.30;;
48002;SDS011;33768;48.578;11.574;2023-09-30T09:19:27;7.43;;;5.27;;
48002;SDS011;33768;48.578;11.574;2023-09-30T09:22:40;3.97;;;2.40;;
48002;SDS011;33768;48.578;11.574;2023-09-30T09:25:45;2.70;;;1.40;;
48002;SDS011;33768;48.578;11.574;2023-09-30T09:28:57;1.93;;;1.23;;
48002;SDS011;33768;48.578;11.574;2023-09-30T09:32:11;2.90;;;1.40;;
48002;SDS011;33768;48.578;11.574;2023-09-30T09:35:20;11.07;;;4.97;;
48002;SDS011;33768;48.578;11.574;2023-09-30T09:38:25;23.07;;;7.13;;
48002;SDS011;33768;48.578;11.574;2023-09-30T09:41:29;10.97;;;3.10;;
48002;SDS011;33768;48.578;11.574;2023-09-30T09:44:36;4.73;;;2.17;;
48002;SDS011;33768;48.578;11.574;2023-09-30T09:47:41;4.13;;;1.77;;
48002;SDS011;33768;48.578;11.574;2023-09-30T09:50:45;2.60;;;1.70;;
48002;SDS011;33768;48.578;11.574;2023-09-30T09:53:50;8.83;;;3.77;;
48002;SDS011;33768;48.578;11.574;2023-09-30T09:56:55;8.67;;;3.17;;
48002;SDS011;33768;48.578;11.574;2023-09-30T10:00:01;3.90;;;1.47;;
48002;SDS011;33768;48.578;11.574;2023-09-30T10:03:09;3.00;;;1.73;;
48002;SDS011;33768;48.578;11.574;2023-09-30T10:06:14;4.32;;;2.05;;
48002;SDS011;33768;48.578;11.574;2023-09-30T10:09:19;5.25;;;2.40;;
48002;SDS011;33768;48.578;11.574;2023-09-30T10:12:24;4.10;;;2.20;;
48002;SDS011;33768;48.578;11.574;2023-09-30T10:18:51;6.63;;;2.78;;
48002;SDS011;33768;48.578;11.574;2023-09-30T10:25:34;3.88;;;2.03;;
48002;SDS011;33768;48.578;11.574;2023-09-30T10:28:39;4.22;;;2.50;;
48002;SDS011;33768;48.578;11.574;2023-09-30T10:31:52;4.90;;;2.17;;
48002;SDS011;33768;48.578;11.574;2023-09-30T10:34:56;4.60;;;2.35;;
48002;SDS011;33768;48.578;11.574;2023-09-30T10:44:43;4.25;;;2.10;;
48002;SDS011;33768;48.578;11.574;2023-09-30T10:47:49;9.48;;;2.40;;
48002;SDS011;33768;48.578;11.574;2023-09-30T10:54:01;5.00;;;2.33;;
48002;SDS011;33768;48.578;11.574;2023-09-30T10:57:44;5.72;;;2.70;;
48002;SDS011;33768;48.578;11.574;2023-09-30T11:04:18;4.53;;;2.53;;
48002;SDS011;33768;48.578;11.574;2023-09-30T11:07:43;4.88;;;2.65;;
48002;SDS011;33768;48.578;11.574;2023-09-30T11:11:12;5.90;;;3.17;;
48002;SDS011;33768;48.578;11.574;2023-09-30T11:17:37;5.20;;;2.70;;
48002;SDS011;33768;48.578;11.574;2023-09-30T11:20:47;6.23;;;3.03;;
48002;SDS011;33768;48.578;11.574;2023-09-30T11:23:51;8.00;;;3.27;;
48002;SDS011;33768;48.578;11.574;2023-09-30T11:26:56;9.40;;;3.17;;
48002;SDS011;33768;48.578;11.574;2023-09-30T11:30:02;7.27;;;3.63;;
48002;SDS011;33768;48.578;11.574;2023-09-30T11:33:07;7.10;;;3.70;;
48002;SDS011;33768;48.578;11.574;2023-09-30T11:36:12;6.43;;;3.37;;
48002;SDS011;33768;48.578;11.574;2023-09-30T11:39:28;5.80;;;3.20;;
48002;SDS011;33768;48.578;11.574;2023-09-30T11:42:33;6.73;;;3.50;;
48002;SDS011;33768;48.578;11.574;2023-09-30T11:45:37;6.73;;;3.57;;
48002;SDS011;33768;48.578;11.574;2023-09-30T11:48:57;6.70;;;3.63;;
48002;SDS011;33768;48.578;11.574;2023-09-30T11:52:04;8.77;;;4.20;;
48002;SDS011;33768;48.578;11.574;2023-09-30T11:55:11;7.03;;;3.60;;
48002;SDS011;33768;48.578;11.574;2023-09-30T11:58:16;6.90;;;4.23;;
48002;SDS011;33768;48.578;11.574;2023-09-30T12:01:22;9.23;;;4.60;;
48002;SDS011;33768;48.578;11.574;2023-09-30T12:04:26;7.43;;;4.03;;
48002;SDS011;33768;48.578;11.574;2023-09-30T12:07:30;7.73;;;4.00;;
48002;SDS011;33768;48.578;11.574;2023-09-30T12:10:34;18.33;;;4.23;;
48002;SDS011;33768;48.578;11.574;2023-09-30T12:13:42;8.53;;;4.00;;
48002;SDS011;33768;48.578;11.574;2023-09-30T12:16:47;10.03;;;4.87;;
48002;SDS011;33768;48.578;11.574;2023-09-30T12:19:53;9.83;;;4.63;;
48002;SDS011;33768;48.578;11.574;2023-09-30T12:22:57;8.87;;;4.77;;
48002;SDS011;33768;48.578;11.574;2023-09-30T12:26:02;9.67;;;5.10;;
48002;SDS011;33768;48.578;11.574;2023-09-30T12:29:09;9.13;;;4.60;;
48002;SDS011;33768;48.578;11.574;2023-09-30T12:32:13;8.50;;;4.17;;
48002;SDS011;33768;48.578;11.574;2023-09-30T12:35:18;7.67;;;4.27;;
48002;SDS011;33768;48.578;11.574;2023-09-30T12:38:22;10.60;;;4.43;;
48002;SDS011;33768;48.578;11.574;2023-09-30T12:41:26;8.57;;;4.93;;
48002;SDS011;33768;48.578;11.574;2023-09-30T12:44:33;9.65;;;5.25;;
48002;SDS011;33768;48.578;11.574;2023-09-30T12:47:38;10.27;;;4.60;;
48002;SDS011;33768;48.578;11.574;2023-09-30T12:50:42;8.85;;;4.03;;
48002;SDS011;33768;48.578;11.574;2023-09-30T12:53:47;9.17;;;4.80;;
48002;SDS011;33768;48.578;11.574;2023-09-30T12:56:51;10.17;;;5.53;;
48002;SDS011;33768;48.578;11.574;2023-09-30T12:59:56;14.93;;;6.37;;
48002;SDS011;33768;48.578;11.574;2023-09-30T13:03:00;12.73;;;4.90;;
48002;SDS011;33768;48.578;11.574;2023-09-30T13:06:06;9.73;;;4.20;;
48002;SDS011;33768;48.578;11.574;2023-09-30T13:09:10;8.63;;;4.53;;
48002;SDS011;33768;48.578;11.574;2023-09-30T13:12:15;9.23;;;4.97;;
48002;SDS011;33768;48.578;11.574;2023-09-30T13:15:20;11.63;;;4.80;;
48002;SDS011;33768;48.578;11.574;2023-09-30T13:18:25;11.50;;;5.10;;
48002;SDS011;33768;48.578;11.574;2023-09-30T13:21:29;11.57;;;6.03;;
48002;SDS011;33768;48.578;11.574;2023-09-30T13:24:34;13.13;;;6.70;;
48002;SDS011;33768;48.578;11.574;2023-09-30T13:27:43;11.67;;;5.53;;
48002;SDS011;33768;48.578;11.574;2023-09-30T13:30:47;14.00;;;5.73;;
48002;SDS011;33768;48.578;11.574;2023-09-30T13:33:52;16.77;;;4.90;;
48002;SDS011;33768;48.578;11.574;2023-09-30T13:36:56;10.97;;;5.40;;
48002;SDS011;33768;48.578;11.574;2023-09-30T13:40:01;11.13;;;5.77;;
48002;SDS011;33768;48.578;11.574;2023-09-30T13:43:12;10.10;;;5.23;;
48002;SDS011;33768;48.578;11.574;2023-09-30T13:46:16;11.20;;;5.03;;
48002;SDS011;33768;48.578;11.574;2023-09-30T13:49:20;10.57;;;5.17;;
48002;SDS011;33768;48.578;11.574;2023-09-30T13:52:24;11.53;;;5.77;;
48002;SDS011;33768;48.578;11.574;2023-09-30T13:55:28;13.43;;;5.50;;
48002;SDS011;33768;48.578;11.574;2023-09-30T13:58:33;10.67;;;5.53;;
48002;SDS011;33768;48.578;11.574;2023-09-30T14:01:37;13.03;;;5.73;;
48002;SDS011;33768;48.578;11.574;2023-09-30T14:04:41;10.33;;;5.77;;
48002;SDS011;33768;48.578;11.574;2023-09-30T14:07:45;11.00;;;5.20;;
48002;SDS011;33768;48.578;11.574;2023-09-30T14:10:49;21.90;;;5.67;;
48002;SDS011;33768;48.578;11.574;2023-09-30T14:13:54;27.40;;;7.07;;
48002;SDS011;33768;48.578;11.574;2023-09-30T14:16:59;11.70;;;6.07;;
48002;SDS011;33768;48.578;11.574;2023-09-30T14:20:03;12.40;;;6.37;;
48002;SDS011;33768;48.578;11.574;2023-09-30T14:23:09;14.80;;;6.67;;
48002;SDS011;33768;48.578;11.574;2023-09-30T14:26:13;12.30;;;6.23;;
48002;SDS011;33768;48.578;11.574;2023-09-30T14:29:17;15.00;;;6.13;;
48002;SDS011;33768;48.578;11.574;2023-09-30T14:32:21;17.07;;;6.47;;
48002;SDS011;33768;48.578;11.574;2023-09-30T14:35:27;17.10;;;6.30;;
48002;SDS011;33768;48.578;11.574;2023-09-30T14:38:31;13.07;;;6.43;;
48002;SDS011;33768;48.578;11.574;2023-09-30T14:41:36;9.93;;;5.23;;
48002;SDS011;33768;48.578;11.574;2023-09-30T14:44:40;11.33;;;5.70;;
48002;SDS011;33768;48.578;11.574;2023-09-30T14:47:45;11.30;;;5.90;;
48002;SDS011;33768;48.578;11.574;2023-09-30T14:50:50;30.00;;;6.93;;
48002;SDS011;33768;48.578;11.574;2023-09-30T14:53:54;12.90;;;6.00;;
48002;SDS011;33768;48.578;11.574;2023-09-30T14:56:58;13.20;;;5.93;;
48002;SDS011;33768;48.578;11.574;2023-09-30T15:00:02;14.83;;;6.57;;
48002;SDS011;33768;48.578;11.574;2023-09-30T15:03:08;10.77;;;5.57;;
48002;SDS011;33768;48.578;11.574;2023-09-30T15:06:12;14.97;;;6.20;;
48002;SDS011;33768;48.578;11.574;2023-09-30T15:09:16;12.60;;;6.37;;
48002;SDS011;33768;48.578;11.574;2023-09-30T15:12:20;12.53;;;5.90;;
48002;SDS011;33768;48.578;11.574;2023-09-30T15:15:24;13.37;;;6.10;;
48002;SDS011;33768;48.578;11.574;2023-09-30T15:18:28;14.60;;;6.00;;
48002;SDS011;33768;48.578;11.574;2023-09-30T15:21:32;12.60;;;6.20;;
48002;SDS011;33768;48.578;11.574;2023-09-30T15:24:36;14.27;;;6.00;;
48002;SDS011;33768;48.578;11.574;2023-09-30T15:27:40;13.07;;;6.00;;
48002;SDS011;33768;48.578;11.574;2023-09-30T15:30:44;13.43;;;5.87;;
48002;SDS011;33768;48.578;11.574;2023-09-30T15:33:49;27.50;;;7.03;;
48002;SDS011;33768;48.578;11.574;2023-09-30T15:36:53;16.50;;;6.33;;
48002;SDS011;33768;48.578;11.574;2023-09-30T15:39:57;15.37;;;6.00;;
48002;SDS011;33768;48.578;11.574;2023-09-30T15:43:02;13.67;;;5.97;;
48002;SDS011;33768;48.578;11.574;2023-09-30T15:46:10;23.47;;;6.30;;
48002;SDS011;33768;48.578;11.574;2023-09-30T15:49:14;18.47;;;6.13;;
48002;SDS011;33768;48.578;11.574;2023-09-30T15:52:19;21.60;;;6.13;;
48002;SDS011;33768;48.578;11.574;2023-09-30T15:55:23;19.23;;;6.10;;
48002;SDS011;33768;48.578;11.574;2023-09-30T15:58:28;19.17;;;6.43;;
48002;SDS011;33768;48.578;11.574;2023-09-30T16:01:32;12.13;;;6.03;;
48002;SDS011;33768;48.578;11.574;2023-09-30T16:04:37;12.07;;;5.97;;
48002;SDS011;33768;48.578;11.574;2023-09-30T16:07:41;13.50;;;5.43;;
48002;SDS011;33768;48.578;11.574;2023-09-30T16:10:46;14.37;;;5.53;;
48002;SDS011;33768;48.578;11.574;2023-09-30T16:13:50;13.40;;;5.50;;
48002;SDS011;33768;48.578;11.574;2023-09-30T16:16:55;23.17;;;5.60;;
48002;SDS011;33768;48.578;11.574;2023-09-30T16:20:00;12.97;;;5.60;;
48002;SDS011;33768;48.578;11.574;2023-09-30T16:23:04;15.37;;;6.10;;
48002;SDS011;33768;48.578;11.574;2023-09-30T16:26:08;13.10;;;5.73;;
48002;SDS011;33768;48.578;11.574;2023-09-30T16:29:13;16.07;;;5.50;;
48002;SDS011;33768;48.578;11.574;2023-09-30T16:32:20;12.80;;;7.00;;
48002;SDS011;33768;48.578;11.574;2023-09-30T16:35:24;12.30;;;5.97;;
48002;SDS011;33768;48.578;11.574;2023-09-30T16:38:28;16.77;;;7.37;;
48002;SDS011;33768;48.578;11.574;2023-09-30T16:41:33;16.90;;;5.93;;
48002;SDS011;33768;48.578;11.574;2023-09-30T16:44:37;13.33;;;6.73;;
48002;SDS011;33768;48.578;11.574;2023-09-30T16:47:41;14.33;;;6.57;;
48002;SDS011;33768;48.578;11.574;2023-09-30T16:50:45;12.77;;;6.23;;
48002;SDS011;33768;48.578;11.574;2023-09-30T16:53:49;18.07;;;6.63;;
48002;SDS011;33768;48.578;11.574;2023-09-30T16:56:54;18.50;;;6.17;;
48002;SDS011;33768;48.578;11.574;2023-09-30T17:00:00;17.50;;;6.40;;
48002;SDS011;33768;48.578;11.574;2023-09-30T17:03:07;16.10;;;6.37;;
48002;SDS011;33768;48.578;11.574;2023-09-30T17:06:12;23.30;;;6.63;;
48002;SDS011;33768;48.578;11.574;2023-09-30T17:09:16;14.93;;;6.63;;
48002;SDS011;33768;48.578;11.574;2023-09-30T17:12:21;17.07;;;6.80;;
48002;SDS011;33768;48.578;11.574;2023-09-30T17:15:25;18.83;;;6.10;;
48002;SDS011;33768;48.578;11.574;2023-09-30T17:18:29;14.93;;;5.93;;
48002;SDS011;33768;48.578;11.574;2023-09-30T17:21:33;12.50;;;6.17;;
48002;SDS011;33768;48.578;11.574;2023-09-30T17:24:37;14.33;;;5.90;;
48002;SDS011;33768;48.578;11.574;2023-09-30T17:27:42;15.40;;;5.97;;
48002;SDS011;33768;48.578;11.574;2023-09-30T17:30:46;12.67;;;5.37;;
48002;SDS011;33768;48.578;11.574;2023-09-30T17:33:50;14.30;;;6.20;;
48002;SDS011;33768;48.578;11.574;2023-09-30T17:36:54;30.73;;;6.70;;
48002;SDS011;33768;48.578;11.574;2023-09-30T17:39:59;15.17;;;6.57;;
48002;SDS011;33768;48.578;11.574;2023-09-30T17:43:03;12.33;;;5.73;;
48002;SDS011;33768;48.578;11.574;2023-09-30T17:46:07;12.40;;;5.70;;
48002;SDS011;33768;48.578;11.574;2023-09-30T17:49:15;13.47;;;6.17;;
48002;SDS011;33768;48.578;11.574;2023-09-30T17:52:19;12.57;;;5.87;;
48002;SDS011;33768;48.578;11.574;2023-09-30T17:55:24;11.57;;;6.07;;
48002;SDS011;33768;48.578;11.574;2023-09-30T17:58:28;12.20;;;5.73;;
48002;SDS011;33768;48.578;11.574;2023-09-30T18:01:32;13.27;;;6.13;;
48002;SDS011;33768;48.578;11.574;2023-09-30T18:04:37;12.93;;;5.83;;
48002;SDS011;33768;48.578;11.574;2023-09-30T18:07:45;12.23;;;5.43;;
48002;SDS011;33768;48.578;11.574;2023-09-30T18:10:50;14.83;;;5.67;;
48002;SDS011;33768;48.578;11.574;2023-09-30T18:13:54;11.97;;;6.07;;
48002;SDS011;33768;48.578;11.574;2023-09-30T18:16:58;11.73;;;5.90;;
48002;SDS011;33768;48.578;11.574;2023-09-30T18:20:02;16.87;;;6.10;;
48002;SDS011;33768;48.578;11.574;2023-09-30T18:23:07;16.60;;;5.87;;
48002;SDS011;33768;48.578;11.574;2023-09-30T18:26:11;15.73;;;6.60;;
48002;SDS011;33768;48.578;11.574;2023-09-30T18:29:15;13.47;;;5.90;;
48002;SDS011;33768;48.578;11.574;2023-09-30T18:32:19;14.07;;;6.17;;
48002;SDS011;33768;48.578;11.574;2023-09-30T18:35:25;16.40;;;6.30;;